Etusivu
METAR-TAF:

METAR-TAF

Lentoasemat :

Vilhelminan, Ruotsi

Leveyspiiri: 64-34-44N, Pituuspiiri: 016-50-00E, korkeus merenpinnasta: 347 m

Tämänhetkinen sää

Tämä raportti tehtiin 23 minuuttia sitten, kello 01.50 UTC
Tuuli 13 kn pohjoisen/luoteesta, vaihdellen lännen/luoteen ja pohjoisen välillä
Lämpötila -5°C
Kosteus 58%
Ilmanpaine 996 hPa
Näkyvyys 10 km tai enemmän

METAR: ESNV 200150Z AUTO 34013KT 300V010 9999 OVC041/// M05/M12 Q0996

Aika: 03:13 (02:13 UTC)


TAF: puuttuu

Säähavainnot ja -ennusteet yli 4000 lentoasemalta (METAR- ja TAF-raportit).

Käytössä olevat sääasemat on merkitty karttaan keltaisilla ja punaisilla pisteillä.

Aseta hiiri pisteen päälle nähdäksesi sääaseman nimen.

Klikkaa sitten nähdäksesi säähavainnot ja -ennusteet.

Kartan vaihtaminen: klikkaa mustalla rastilla varustettuja vihreitä pisteitä, niin voit zoomata sisään; viivalla varustettua vihreää pistettä, niin voit zoomata ulos tai vihreitä nuolia, niin pääset viereisille kartoille.


METAR-TAF: